Time;durP1;ratioP1;P1;durP2;ratioP2;P2;SDS_P1;SDS_P2;PMS_P1;PMS_P2;Temp;Humidity;BMP_temperature;BMP_pressure;BME280_temperature;BME280_humidity;BME280_pressure;Samples;Min_cycle;Max_cycle;Signal;HPM_P1;HPM_P2
2022/11/03 05:52:12;;;;;;;;;;;20.70;99.90;;;;;;5810734;23;19927;-78
2022/11/03 05:54:40;;;;;;;;;;;20.70;99.90;;;;;;4976171;28;19939;-76
2022/11/03 05:57:08;;;;;;;;;;;20.60;99.90;;;;;;4975830;28;20274;-76
2022/11/03 05:59:35;;;;;;;;;;;20.70;99.90;;;;;;4975871;28;19933;-77
2022/11/03 06:02:02;;;;;;;;;;;20.60;99.90;;;;;;4976944;28;19926;-79
2022/11/03 06:04:31;;;;;;;;;;;20.60;99.90;;;;;;4976417;28;19926;-78
2022/11/03 06:07:00;;;;;;;;;;;20.60;99.90;;;;;;4975757;28;19937;-78
2022/11/03 06:09:27;;;;;;;;;;;20.60;99.90;;;;;;4976614;28;19926;-77
2022/11/03 06:11:56;;;;;;;;;;;20.60;99.90;;;;;;4975325;28;19926;-77
2022/11/03 06:14:24;;;;;;;;;;;20.70;99.90;;;;;;4975651;28;19926;-76
2022/11/03 06:16:52;;;;;;;;;;;20.60;99.90;;;;;;4975617;28;19926;-77
2022/11/03 06:19:21;;;;;;;;;;;20.70;99.90;;;;;;4975250;28;20444;-77
2022/11/03 06:21:48;;;;;;;;;;;20.70;99.90;;;;;;4975478;28;20286;-74
2022/11/03 06:24:15;;;;;;;;;;;20.60;99.90;;;;;;4975500;28;19926;-73
2022/11/03 06:26:43;;;;;;;;;;;20.70;99.90;;;;;;4975488;28;19926;-75
2022/11/03 06:29:14;;;;;;;;;;;20.60;99.90;;;;;;4975428;28;19926;-75
2022/11/03 06:31:41;;;;;;;;;;;20.60;99.90;;;;;;4975592;28;19926;-76
2022/11/03 06:34:15;;;;;;;;;;;20.60;99.90;;;;;;4975061;28;19930;-74
2022/11/03 06:36:41;;;;;;;;;;;20.60;99.90;;;;;;4975411;28;19941;-74
2022/11/03 06:39:14;;;;;;;;;;;20.60;99.90;;;;;;4975285;28;19930;-74
2022/11/03 06:41:42;;;;;;;;;;;20.60;99.90;;;;;;4975112;28;19930;-74
2022/11/03 06:44:19;;;;;;;;;;;20.50;99.90;;;;;;4975255;28;19981;-75
2022/11/03 06:46:46;;;;;;;;;;;20.60;99.90;;;;;;4975303;28;19934;-74
2022/11/03 06:49:23;;;;;;;;;;;20.60;99.90;;;;;;4975263;28;19926;-74
2022/11/03 06:51:49;;;;;;;;;;;20.50;99.90;;;;;;4975165;28;19934;-74
2022/11/03 06:54:16;;;;;;;;;;;20.50;99.90;;;;;;4974922;28;19933;-73
2022/11/03 06:56:42;;;;;;;;;;;20.50;99.90;;;;;;4975139;28;19927;-74
2022/11/03 06:59:10;;;;;;;;;;;20.50;99.90;;;;;;4975080;28;19934;-73
2022/11/03 07:01:38;;;;;;;;;;;20.50;99.90;;;;;;4975081;28;19926;-73
2022/11/03 07:04:12;;;;;;;;;;;20.50;99.90;;;;;;4975091;28;19926;-73
2022/11/03 07:06:38;;;;;;;;;;;20.50;99.90;;;;;;4976222;28;19938;-74
2022/11/03 07:09:08;;;;;;;;;;;20.50;99.90;;;;;;4975658;28;20397;-77
2022/11/03 07:11:37;;;;;;;;;;;20.50;99.90;;;;;;4976361;28;19950;-77
2022/11/03 07:14:10;;;;;;;;;;;20.50;99.90;;;;;;4976297;28;20394;-74
2022/11/03 07:16:41;;;;;;;;;;;20.50;99.90;;;;;;4975433;28;20033;-74
2022/11/03 07:19:12;;;;;;;;;;;20.50;99.90;;;;;;4974964;28;19926;-74
2022/11/03 07:21:40;;;;;;;;;;;20.50;99.90;;;;;;4974902;28;19931;-74
2022/11/03 07:24:14;;;;;;;;;;;20.50;99.90;;;;;;4976590;28;19926;-74
2022/11/03 07:26:40;;;;;;;;;;;20.50;99.90;;;;;;4978688;28;19957;-74
2022/11/03 07:29:08;;;;;;;;;;;20.50;99.90;;;;;;4978307;28;20382;-74
2022/11/03 07:31:35;;;;;;;;;;;20.50;99.90;;;;;;4978199;28;20417;-74
2022/11/03 07:34:05;;;;;;;;;;;20.50;99.90;;;;;;4978436;28;19930;-74
2022/11/03 07:36:32;;;;;;;;;;;20.50;99.90;;;;;;4978495;28;19926;-74
2022/11/03 07:39:01;;;;;;;;;;;20.50;99.90;;;;;;4978110;28;20382;-74
2022/11/03 07:41:28;;;;;;;;;;;20.50;99.90;;;;;;4978301;28;19930;-74
2022/11/03 07:43:56;;;;;;;;;;;20.50;99.90;;;;;;4978072;28;19926;-74
2022/11/03 07:46:23;;;;;;;;;;;20.50;99.90;;;;;;4978290;28;19933;-74
2022/11/03 07:48:51;;;;;;;;;;;20.50;99.90;;;;;;4978544;28;19926;-74
2022/11/03 07:51:21;;;;;;;;;;;20.50;99.90;;;;;;4978183;28;19926;-75
2022/11/03 07:53:49;;;;;;;;;;;20.50;99.90;;;;;;4978268;28;19926;-74
2022/11/03 07:56:18;;;;;;;;;;;20.50;99.90;;;;;;4977886;28;20294;-74
2022/11/03 07:58:46;;;;;;;;;;;20.50;99.90;;;;;;4978659;28;19933;-74
2022/11/03 08:01:22;;;;;;;;;;;20.50;99.90;;;;;;4977966;28;19926;-75
2022/11/03 08:03:49;;;;;;;;;;;20.50;99.90;;;;;;4978022;28;19961;-74
2022/11/03 08:06:15;;;;;;;;;;;20.50;99.90;;;;;;4977963;28;19930;-74
2022/11/03 08:08:43;;;;;;;;;;;20.50;99.90;;;;;;4977873;28;19926;-74
2022/11/03 08:11:10;;;;;;;;;;;20.50;99.90;;;;;;4977818;28;19926;-75
2022/11/03 08:13:37;;;;;;;;;;;20.50;99.90;;;;;;4977430;28;20378;-74
2022/11/03 08:16:03;;;;;;;;;;;20.50;99.90;;;;;;4977471;28;20278;-74
2022/11/03 08:18:30;;;;;;;;;;;20.40;99.90;;;;;;4977383;28;20389;-74
2022/11/03 08:20:56;;;;;;;;;;;20.40;99.90;;;;;;4977655;28;19930;-74
2022/11/03 08:23:23;;;;;;;;;;;20.50;99.90;;;;;;4977527;28;19933;-74
2022/11/03 08:25:51;;;;;;;;;;;20.40;99.90;;;;;;4977808;28;19926;-74
2022/11/03 08:28:18;;;;;;;;;;;20.50;99.90;;;;;;4977546;28;19933;-74
2022/11/03 08:30:44;;;;;;;;;;;20.40;99.90;;;;;;4977519;28;19933;-74
2022/11/03 08:33:11;;;;;;;;;;;20.40;99.90;;;;;;4977309;28;19926;-73
2022/11/03 08:35:37;;;;;;;;;;;20.40;99.90;;;;;;4977471;28;19926;-73
2022/11/03 08:38:04;;;;;;;;;;;20.40;99.90;;;;;;4977610;28;19926;-75
2022/11/03 08:40:30;;;;;;;;;;;20.40;99.90;;;;;;4977321;28;19973;-74
2022/11/03 08:42:59;;;;;;;;;;;20.40;99.90;;;;;;4977218;28;19926;-75
2022/11/03 08:45:26;;;;;;;;;;;20.40;99.90;;;;;;4977287;28;19930;-74
2022/11/03 08:47:52;;;;;;;;;;;20.40;99.90;;;;;;4977215;28;19933;-74
2022/11/03 08:50:19;;;;;;;;;;;20.40;99.90;;;;;;4977157;28;19930;-74
2022/11/03 08:52:45;;;;;;;;;;;20.40;99.90;;;;;;4976966;28;19926;-74
2022/11/03 08:55:12;;;;;;;;;;;20.40;99.90;;;;;;4976641;28;20382;-74
2022/11/03 08:57:38;;;;;;;;;;;20.40;99.90;;;;;;4976686;28;20401;-74
2022/11/03 09:00:08;;;;;;;;;;;20.40;99.90;;;;;;4976982;28;20309;-74
2022/11/03 09:02:35;;;;;;;;;;;20.40;99.90;;;;;;4976552;28;20382;-74
2022/11/03 09:05:02;;;;;;;;;;;20.40;99.90;;;;;;4976849;28;19949;-74
2022/11/03 09:07:29;;;;;;;;;;;20.40;99.90;;;;;;4976800;28;20137;-75
2022/11/03 09:09:55;;;;;;;;;;;20.40;99.90;;;;;;4976778;28;19927;-74
2022/11/03 09:12:22;;;;;;;;;;;20.40;99.90;;;;;;4976919;28;19926;-74
2022/11/03 09:14:48;;;;;;;;;;;20.40;99.90;;;;;;4976332;28;20302;-74
2022/11/03 09:17:16;;;;;;;;;;;20.40;99.80;;;;;;4976596;28;19926;-74
2022/11/03 09:19:43;;;;;;;;;;;20.40;99.70;;;;;;4976595;28;19926;-74
2022/11/03 09:22:09;;;;;;;;;;;20.40;99.50;;;;;;4976500;28;19930;-74
2022/11/03 09:24:36;;;;;;;;;;;20.40;99.40;;;;;;4976475;28;19933;-74
2022/11/03 09:27:03;;;;;;;;;;;20.40;99.20;;;;;;4976409;28;19930;-74
2022/11/03 09:29:30;;;;;;;;;;;20.40;99.10;;;;;;4976362;28;20301;-74
2022/11/03 09:31:57;;;;;;;;;;;20.40;99.00;;;;;;4976311;28;19926;-74
2022/11/03 09:34:25;;;;;;;;;;;20.40;98.90;;;;;;4976455;28;19933;-74
2022/11/03 09:36:51;;;;;;;;;;;20.40;98.70;;;;;;4976019;28;20408;-74
2022/11/03 09:39:18;;;;;;;;;;;20.40;98.60;;;;;;4975944;28;20385;-74
2022/11/03 09:41:45;;;;;;;;;;;20.40;98.50;;;;;;4976423;28;19926;-74
2022/11/03 09:44:11;;;;;;;;;;;20.40;98.40;;;;;;4976165;28;19926;-74
2022/11/03 09:46:38;;;;;;;;;;;20.40;98.30;;;;;;4975559;28;19926;-74
2022/11/03 09:49:05;;;;;;;;;;;20.40;98.10;;;;;;4975793;28;19980;-74
2022/11/03 09:51:35;;;;;;;;;;;20.40;97.90;;;;;;4975648;28;20381;-74
2022/11/03 09:54:03;;;;;;;;;;;20.40;97.90;;;;;;4975485;28;19926;-74
2022/11/03 09:56:30;;;;;;;;;;;20.40;97.90;;;;;;4975970;28;19934;-74
2022/11/03 09:58:57;;;;;;;;;;;20.40;97.80;;;;;;4975906;28;19926;-74
2022/11/03 10:01:23;;;;;;;;;;;20.40;97.60;;;;;;4975788;28;20297;-74
2022/11/03 10:03:50;;;;;;;;;;;20.40;97.50;;;;;;4975811;28;19936;-74
2022/11/03 10:06:17;;;;;;;;;;;20.40;97.40;;;;;;4975772;28;19949;-74
2022/11/03 10:08:46;;;;;;;;;;;20.40;97.30;;;;;;4975432;28;20444;-74
2022/11/03 10:11:12;;;;;;;;;;;20.40;97.20;;;;;;4975607;28;19926;-74
2022/11/03 10:13:39;;;;;;;;;;;20.40;97.10;;;;;;4975566;28;19926;-73
2022/11/03 10:16:07;;;;;;;;;;;20.40;96.90;;;;;;4975661;28;19926;-73
2022/11/03 10:18:35;;;;;;;;;;;20.40;96.80;;;;;;4975575;28;19926;-74
2022/11/03 10:21:03;;;;;;;;;;;20.40;96.70;;;;;;4975542;28;19934;-74
2022/11/03 10:23:30;;;;;;;;;;;20.40;96.60;;;;;;4975382;28;19930;-74
2022/11/03 10:26:03;;;;;;;;;;;20.40;96.50;;;;;;4975188;28;19926;-74
2022/11/03 10:28:29;;;;;;;;;;;20.40;96.40;;;;;;4975483;28;19937;-74
2022/11/03 10:30:57;;;;;;;;;;;20.40;96.30;;;;;;4975440;28;19926;-74
2022/11/03 10:33:28;;;;;;;;;;;20.40;96.20;;;;;;4975232;28;19933;-74
2022/11/03 10:35:54;;;;;;;;;;;20.40;96.00;;;;;;4975403;28;19926;-74
2022/11/03 10:38:26;;;;;;;;;;;20.40;95.90;;;;;;4975309;28;19956;-74
2022/11/03 10:40:52;;;;;;;;;;;20.40;95.80;;;;;;4975316;28;19926;-74
2022/11/03 10:43:20;;;;;;;;;;;20.40;95.70;;;;;;4975232;28;19930;-74
2022/11/03 10:45:48;;;;;;;;;;;20.40;95.50;;;;;;4974920;28;20382;-74
2022/11/03 10:48:15;;;;;;;;;;;20.40;95.50;;;;;;4975221;28;20121;-74
2022/11/03 10:50:42;;;;;;;;;;;20.40;95.50;;;;;;4975481;28;19933;-74
2022/11/03 10:53:15;;;;;;;;;;;20.40;95.50;;;;;;4975042;28;20408;-74
2022/11/03 10:55:41;;;;;;;;;;;20.40;95.30;;;;;;4974829;28;19926;-74
2022/11/03 10:58:08;;;;;;;;;;;20.40;95.20;;;;;;4975175;28;19926;-74
2022/11/03 11:00:36;;;;;;;;;;;20.40;95.10;;;;;;4979140;28;19940;-74
2022/11/03 11:03:03;;;;;;;;;;;20.40;95.00;;;;;;4979001;28;19926;-74
2022/11/03 11:05:29;;;;;;;;;;;20.40;94.90;;;;;;4979016;28;19926;-74
2022/11/03 11:07:56;;;;;;;;;;;20.40;94.80;;;;;;4978697;28;20370;-74
2022/11/03 11:10:23;;;;;;;;;;;20.40;94.70;;;;;;4978904;28;19933;-74
2022/11/03 11:13:03;;;;;;;;;;;20.40;94.60;;;;;;4978526;28;20317;-74
2022/11/03 11:15:39;;;;;;;;;;;20.40;94.50;;;;;;4978724;28;19930;-74
2022/11/03 11:18:06;;;;;;;;;;;20.40;94.40;;;;;;4978821;28;19974;-74
2022/11/03 11:20:34;;;;;;;;;;;20.40;94.30;;;;;;4978765;28;19926;-72
2022/11/03 11:23:19;;;;;;;;;;;20.40;94.20;;;;;;4980488;28;19930;-74
2022/11/03 11:26:04;;;;;;;;;;;20.40;94.10;;;;;;4979906;28;19926;-73
2022/11/03 11:28:31;;;;;;;;;;;20.40;94.00;;;;;;4979297;28;19937;-74
2022/11/03 11:30:59;;;;;;;;;;;20.40;94.00;;;;;;4980342;28;19929;-74
2022/11/03 11:33:26;;;;;;;;;;;20.90;94.10;;;;;;4978729;28;19997;-75
2022/11/03 11:36:07;;;;;;;;;;;20.40;93.80;;;;;;4978581;28;19934;-75
2022/11/03 11:39:04;;;;;;;;;;;20.40;93.80;;;;;;4978753;28;19932;-74
2022/11/03 11:41:49;;;;;;;;;;;20.40;93.70;;;;;;4978442;28;20042;-75
2022/11/03 11:44:34;;;;;;;;;;;20.40;93.60;;;;;;4979269;28;19962;-75
2022/11/03 11:47:02;;;;;;;;;;;20.40;93.50;;;;;;4978448;28;20309;-75
2022/11/03 11:49:29;;;;;;;;;;;20.40;93.50;;;;;;4978491;28;20298;-74
2022/11/03 11:52:00;;;;;;;;;;;20.40;93.40;;;;;;4978415;28;19933;-74
2022/11/03 11:54:27;;;;;;;;;;;20.40;93.30;;;;;;4978065;28;19930;-74
2022/11/03 11:56:54;;;;;;;;;;;20.40;93.30;;;;;;4978345;28;19926;-74
2022/11/03 11:59:22;;;;;;;;;;;20.50;93.30;;;;;;4978304;28;19930;-74
2022/11/03 12:01:49;;;;;;;;;;;20.50;93.10;;;;;;4978039;28;19926;-75
2022/11/03 12:04:20;;;;;;;;;;;20.50;93.10;;;;;;4978041;28;19926;-75
2022/11/03 12:06:46;;;;;;;;;;;20.40;93.00;;;;;;4978101;28;19926;-75
2022/11/03 12:09:16;;;;;;;;;;;20.50;93.10;;;;;;4977870;28;20305;-77
2022/11/03 12:11:43;;;;;;;;;;;20.50;93.10;;;;;;4978976;28;20294;-77
2022/11/03 12:14:23;;;;;;;;;;;20.50;93.10;;;;;;4978876;28;20374;-78
2022/11/03 12:16:50;;;;;;;;;;;20.50;93.10;;;;;;4979109;28;19933;-78
2022/11/03 12:19:38;;;;;;;;;;;20.50;93.00;;;;;;4979435;28;20382;-78
2022/11/03 12:22:05;;;;;;;;;;;20.50;93.20;;;;;;4978929;28;19933;-79
2022/11/03 12:24:36;;;;;;;;;;;20.50;92.80;;;;;;4978985;28;19930;-77
2022/11/03 12:27:03;;;;;;;;;;;20.50;92.80;;;;;;4978378;28;19926;-77
2022/11/03 12:29:32;;;;;;;;;;;20.50;92.70;;;;;;4978938;28;19932;-77
2022/11/03 12:31:58;;;;;;;;;;;20.50;92.70;;;;;;4978547;28;19926;-77
2022/11/03 12:34:25;;;;;;;;;;;20.50;92.70;;;;;;4978961;28;19926;-78
2022/11/03 12:36:53;;;;;;;;;;;20.50;92.60;;;;;;4978961;28;19930;-79
2022/11/03 12:39:19;;;;;;;;;;;20.60;92.70;;;;;;4979539;28;19926;-80
2022/11/03 12:41:46;;;;;;;;;;;20.50;92.60;;;;;;4978928;28;19926;-78
2022/11/03 12:44:13;;;;;;;;;;;20.50;92.60;;;;;;4980060;28;19933;-79
2022/11/03 12:46:40;;;;;;;;;;;20.50;92.50;;;;;;4979647;28;19926;-79
2022/11/03 12:49:07;;;;;;;;;;;20.60;92.60;;;;;;4979629;28;19926;-79
2022/11/03 12:51:33;;;;;;;;;;;20.60;92.60;;;;;;4979044;28;20445;-78
2022/11/03 12:54:01;;;;;;;;;;;20.60;92.60;;;;;;4978573;28;19930;-77
2022/11/03 12:56:28;;;;;;;;;;;20.60;92.60;;;;;;4979026;28;19933;-78
2022/11/03 12:58:54;;;;;;;;;;;20.60;92.60;;;;;;4978902;28;19930;-79
2022/11/03 13:01:21;;;;;;;;;;;20.60;92.50;;;;;;4978937;28;19926;-77
2022/11/03 13:03:48;;;;;;;;;;;20.60;92.50;;;;;;4979147;28;19926;-79
2022/11/03 13:06:15;;;;;;;;;;;20.60;92.50;;;;;;4978971;28;19926;-79
2022/11/03 13:08:41;;;;;;;;;;;20.60;92.50;;;;;;4978826;28;19933;-79
2022/11/03 13:13:50;;;;;;;;;;;20.60;92.40;;;;;;4978574;28;19948;-78
2022/11/03 13:16:16;;;;;;;;;;;20.50;92.30;;;;;;4978870;28;19933;-79
2022/11/03 13:18:43;;;;;;;;;;;20.60;92.30;;;;;;4979018;28;19927;-79
2022/11/03 13:21:09;;;;;;;;;;;20.50;92.20;;;;;;4978087;28;19926;-78
2022/11/03 13:23:36;;;;;;;;;;;20.50;92.20;;;;;;4978596;28;19926;-79
2022/11/03 13:26:03;;;;;;;;;;;20.50;92.10;;;;;;4977883;28;19926;-78
2022/11/03 13:28:31;;;;;;;;;;;20.50;92.00;;;;;;4977449;28;20017;-78
2022/11/03 13:30:57;;;;;;;;;;;20.50;92.00;;;;;;4977789;28;19926;-77
2022/11/03 13:33:24;;;;;;;;;;;20.50;91.90;;;;;;4977727;28;19933;-77
2022/11/03 13:35:51;;;;;;;;;;;20.50;91.90;;;;;;4977700;28;19926;-77
2022/11/03 13:38:17;;;;;;;;;;;20.50;91.90;;;;;;4977786;28;19934;-77
2022/11/03 13:40:44;;;;;;;;;;;20.50;91.80;;;;;;4977781;28;19934;-77
2022/11/03 13:43:11;;;;;;;;;;;20.50;91.70;;;;;;4978107;28;19926;-77
2022/11/03 13:45:39;;;;;;;;;;;20.50;91.70;;;;;;4978333;28;19932;-77
2022/11/03 13:48:06;;;;;;;;;;;20.50;91.60;;;;;;4978098;28;19926;-77
2022/11/03 13:50:32;;;;;;;;;;;20.40;91.60;;;;;;4977468;28;19953;-77
2022/11/03 13:52:59;;;;;;;;;;;20.50;91.50;;;;;;4976944;28;19926;-77
2022/11/03 13:55:26;;;;;;;;;;;20.50;91.50;;;;;;4976982;28;20363;-77
2022/11/03 13:57:52;;;;;;;;;;;20.50;91.40;;;;;;4977637;28;19930;-77
2022/11/03 14:00:19;;;;;;;;;;;20.50;91.40;;;;;;4977157;28;19930;-77
2022/11/03 14:02:47;;;;;;;;;;;20.50;91.30;;;;;;4977669;28;19926;-77
2022/11/03 14:05:13;;;;;;;;;;;20.50;91.30;;;;;;4977385;28;19926;-77
2022/11/03 14:07:40;;;;;;;;;;;20.50;91.20;;;;;;4977350;28;19926;-77
2022/11/03 14:10:07;;;;;;;;;;;20.50;91.10;;;;;;4977164;28;19926;-77
2022/11/03 14:12:35;;;;;;;;;;;20.50;91.10;;;;;;4976655;28;20333;-77
2022/11/03 14:15:02;;;;;;;;;;;20.50;91.00;;;;;;4977385;28;20019;-77
2022/11/03 14:17:29;;;;;;;;;;;20.50;90.90;;;;;;4977336;28;19926;-77
2022/11/03 14:19:57;;;;;;;;;;;20.50;90.90;;;;;;4977907;28;20282;-78
2022/11/03 14:22:24;;;;;;;;;;;20.50;90.80;;;;;;4977442;28;19926;-77
2022/11/03 14:24:51;;;;;;;;;;;20.50;90.70;;;;;;4976420;28;20404;-77
2022/11/03 14:27:18;;;;;;;;;;;20.50;90.60;;;;;;4977047;28;19926;-79
2022/11/03 14:29:48;;;;;;;;;;;20.50;90.60;;;;;;4977536;28;20279;-79
2022/11/03 14:32:14;;;;;;;;;;;20.50;90.60;;;;;;4976834;28;19932;-77
2022/11/03 14:34:42;;;;;;;;;;;20.40;90.50;;;;;;4977234;28;20401;-77
2022/11/03 14:37:10;;;;;;;;;;;20.50;90.60;;;;;;4977539;28;19926;-77
2022/11/03 14:39:37;;;;;;;;;;;20.50;90.60;;;;;;4977470;28;19933;-77
2022/11/03 14:42:02;;;;;;;;;;;20.40;90.50;;;;;;4977127;28;19930;-77
2022/11/03 14:44:29;;;;;;;;;;;20.40;90.40;;;;;;4976754;28;20294;-77
2022/11/03 14:46:56;;;;;;;;;;;20.40;90.30;;;;;;4977279;28;19926;-77
2022/11/03 14:49:23;;;;;;;;;;;20.50;90.30;;;;;;4977315;28;19930;-77
2022/11/03 14:51:49;;;;;;;;;;;20.40;90.20;;;;;;4976519;28;20298;-77
2022/11/03 14:54:17;;;;;;;;;;;20.40;90.10;;;;;;4976583;28;20001;-77
2022/11/03 14:56:44;;;;;;;;;;;20.40;90.10;;;;;;4976673;28;19926;-78
2022/11/03 14:59:10;;;;;;;;;;;20.40;90.00;;;;;;4977085;28;19934;-79
2022/11/03 15:01:37;;;;;;;;;;;20.40;90.00;;;;;;4976700;28;19933;-77
2022/11/03 15:04:04;;;;;;;;;;;20.40;89.90;;;;;;4976098;28;20401;-77
2022/11/03 15:06:30;;;;;;;;;;;20.40;90.20;;;;;;4976510;28;19933;-77
2022/11/03 15:08:57;;;;;;;;;;;20.40;89.70;;;;;;4976369;28;19934;-77
2022/11/03 15:11:25;;;;;;;;;;;20.40;89.50;;;;;;4975270;28;19934;-77
2022/11/03 15:13:53;;;;;;;;;;;20.40;89.40;;;;;;4975907;28;20382;-78
2022/11/03 15:16:19;;;;;;;;;;;20.40;89.30;;;;;;4976265;28;19927;-78
2022/11/03 15:18:46;;;;;;;;;;;20.40;89.20;;;;;;4976095;28;20408;-78
2022/11/03 15:21:13;;;;;;;;;;;20.40;89.00;;;;;;4975772;28;19926;-77
2022/11/03 15:23:39;;;;;;;;;;;20.40;88.90;;;;;;4975441;28;19926;-77
2022/11/03 15:26:06;;;;;;;;;;;20.40;88.80;;;;;;4976093;28;19933;-77
2022/11/03 15:28:34;;;;;;;;;;;20.40;88.70;;;;;;4978204;28;19931;-80
2022/11/03 15:31:01;;;;;;;;;;;20.40;88.60;;;;;;4984834;28;19926;-79
2022/11/03 15:33:28;;;;;;;;;;;20.40;88.40;;;;;;4982457;28;20309;-81
2022/11/03 15:35:54;;;;;;;;;;;20.40;88.40;;;;;;4978854;28;19926;-81
2022/11/03 15:38:21;;;;;;;;;;;20.40;88.20;;;;;;4978472;28;19957;-81
2022/11/03 15:40:47;;;;;;;;;;;20.40;88.20;;;;;;4978781;28;19926;-81
2022/11/03 15:43:14;;;;;;;;;;;20.40;88.30;;;;;;4978574;28;19933;-81
2022/11/03 15:45:42;;;;;;;;;;;20.40;88.40;;;;;;4980222;28;19933;-81
2022/11/03 15:48:09;;;;;;;;;;;20.50;88.60;;;;;;4982664;28;20305;-81
2022/11/03 15:50:35;;;;;;;;;;;20.50;88.80;;;;;;4982511;28;19973;-81
2022/11/03 15:53:02;;;;;;;;;;;20.60;88.90;;;;;;4982014;28;20490;-81
2022/11/03 15:55:28;;;;;;;;;;;20.60;89.10;;;;;;4981382;28;19926;-81
2022/11/03 15:57:55;;;;;;;;;;;20.60;89.10;;;;;;4981356;28;19933;-81
2022/11/03 16:00:22;;;;;;;;;;;20.60;89.20;;;;;;4981294;28;20408;-81
2022/11/03 16:02:50;;;;;;;;;;;20.70;89.30;;;;;;4981470;28;19926;-81
2022/11/03 16:05:17;;;;;;;;;;;20.70;89.30;;;;;;4981662;28;20061;-81
2022/11/03 16:07:43;;;;;;;;;;;20.70;89.40;;;;;;4981147;28;19930;-81
2022/11/03 16:10:10;;;;;;;;;;;20.70;89.40;;;;;;4981445;28;19933;-81
2022/11/03 16:12:36;;;;;;;;;;;20.70;89.50;;;;;;4981601;28;20020;-81
2022/11/03 16:15:03;;;;;;;;;;;20.80;89.70;;;;;;4981321;28;20008;-81
2022/11/03 16:17:30;;;;;;;;;;;20.80;89.70;;;;;;4982134;28;19932;-82
2022/11/03 16:19:58;;;;;;;;;;;20.80;89.70;;;;;;4981286;28;19933;-81
2022/11/03 16:22:24;;;;;;;;;;;20.80;89.70;;;;;;4982271;28;19926;-82
2022/11/03 16:24:51;;;;;;;;;;;20.90;89.80;;;;;;4981051;28;19926;-81
2022/11/03 16:27:17;;;;;;;;;;;20.90;89.70;;;;;;4980449;28;20394;-81
2022/11/03 16:29:44;;;;;;;;;;;20.90;89.70;;;;;;4980625;28;19930;-81
2022/11/03 16:32:11;;;;;;;;;;;20.90;89.80;;;;;;4980979;28;19969;-81
2022/11/03 16:34:37;;;;;;;;;;;20.90;89.70;;;;;;4980939;28;19926;-81
2022/11/03 16:37:05;;;;;;;;;;;21.00;89.70;;;;;;4981125;28;20417;-81
2022/11/03 16:39:32;;;;;;;;;;;21.00;89.70;;;;;;4981114;28;19926;-82
2022/11/03 16:42:00;;;;;;;;;;;21.00;89.70;;;;;;4981840;28;20342;-82
2022/11/03 16:44:27;;;;;;;;;;;20.90;89.60;;;;;;4980839;28;20021;-81
2022/11/03 16:46:54;;;;;;;;;;;21.00;89.70;;;;;;4980480;28;20416;-81
2022/11/03 16:49:20;;;;;;;;;;;21.00;89.60;;;;;;4979684;28;19926;-82
2022/11/03 16:51:47;;;;;;;;;;;21.00;89.60;;;;;;4980258;28;19926;-82
2022/11/03 16:54:15;;;;;;;;;;;21.10;89.50;;;;;;4979620;28;19930;-83
2022/11/03 16:56:42;;;;;;;;;;;21.10;89.30;;;;;;4980407;28;20267;-83
2022/11/03 16:59:09;;;;;;;;;;;21.00;89.10;;;;;;4980240;28;20003;-82
2022/11/03 17:01:36;;;;;;;;;;;21.10;88.90;;;;;;4979011;28;19933;-82
2022/11/03 17:04:02;;;;;;;;;;;21.00;88.60;;;;;;4982151;28;19926;-83
2022/11/03 17:06:29;;;;;;;;;;;21.00;88.40;;;;;;4978441;28;20386;-83
2022/11/03 17:08:56;;;;;;;;;;;21.00;88.20;;;;;;4978749;28;19932;-82
2022/11/03 17:11:35;;;;;;;;;;;21.00;88.10;;;;;;4978392;28;19926;-83
2022/11/03 17:14:03;;;;;;;;;;;21.00;87.90;;;;;;4978846;28;19926;-82
2022/11/03 17:16:29;;;;;;;;;;;21.00;87.80;;;;;;4978438;28;19956;-82
2022/11/03 17:18:57;;;;;;;;;;;21.00;87.80;;;;;;4978891;28;19949;-82
2022/11/03 17:21:24;;;;;;;;;;;21.00;87.80;;;;;;4978748;28;20433;-80
2022/11/03 17:23:50;;;;;;;;;;;21.00;87.90;;;;;;4978363;28;20306;-83
2022/11/03 17:26:18;;;;;;;;;;;21.10;88.00;;;;;;4979361;28;19926;-83
2022/11/03 17:28:46;;;;;;;;;;;21.00;87.90;;;;;;4978678;28;19936;-83
2022/11/03 17:31:12;;;;;;;;;;;21.10;88.00;;;;;;4978633;28;19926;-82
2022/11/03 17:33:39;;;;;;;;;;;20.90;87.90;;;;;;4978289;28;19926;-83
2022/11/03 17:36:06;;;;;;;;;;;20.50;87.50;;;;;;4979139;28;19972;-81
2022/11/03 17:38:33;;;;;;;;;;;21.10;88.20;;;;;;4980176;28;20020;-82
2022/11/03 17:41:00;;;;;;;;;;;21.00;88.20;;;;;;4980164;28;19937;-82
2022/11/03 17:43:28;;;;;;;;;;;21.00;88.20;;;;;;4979521;28;19989;-82
2022/11/03 17:45:56;;;;;;;;;;;21.00;88.20;;;;;;4979769;28;19926;-84
2022/11/03 17:48:23;;;;;;;;;;;21.60;89.00;;;;;;4978612;28;19926;-80
2022/11/03 17:50:52;;;;;;;;;;;21.10;88.60;;;;;;4979744;28;20279;-81
2022/11/03 17:53:20;;;;;;;;;;;21.00;88.60;;;;;;4980303;28;19930;-79
2022/11/03 17:55:49;;;;;;;;;;;21.00;88.70;;;;;;4980098;28;20402;-81
2022/11/03 17:58:16;;;;;;;;;;;21.00;88.80;;;;;;4981694;28;19926;-81
2022/11/03 18:00:43;;;;;;;;;;;21.00;89.00;;;;;;4981296;28;19926;-81
2022/11/03 18:03:13;;;;;;;;;;;21.00;89.10;;;;;;4980695;28;19933;-81
2022/11/03 18:05:41;;;;;;;;;;;21.10;89.20;;;;;;4981439;28;20281;-80
2022/11/03 18:08:10;;;;;;;;;;;21.00;89.20;;;;;;4979430;28;20029;-79
2022/11/03 18:10:39;;;;;;;;;;;21.00;89.40;;;;;;4979037;28;19927;-79
2022/11/03 18:13:16;;;;;;;;;;;21.00;89.50;;;;;;4982478;28;20394;-80
2022/11/03 18:15:43;;;;;;;;;;;21.00;89.60;;;;;;4983743;28;19926;-81
2022/11/03 18:18:17;;;;;;;;;;;21.00;89.80;;;;;;4981263;28;20442;-81
2022/11/03 18:20:46;;;;;;;;;;;21.00;89.90;;;;;;4984764;28;19933;-80
2022/11/03 18:23:14;;;;;;;;;;;21.00;90.00;;;;;;4992335;28;19926;-80
2022/11/03 18:25:41;;;;;;;;;;;21.00;90.10;;;;;;4990204;28;19932;-80
2022/11/03 18:28:07;;;;;;;;;;;21.00;90.10;;;;;;4982649;28;19926;-80
2022/11/03 18:30:34;;;;;;;;;;;21.00;90.20;;;;;;4981868;28;20326;-81
2022/11/03 18:33:01;;;;;;;;;;;21.00;90.20;;;;;;4981458;28;19933;-81
2022/11/03 18:35:31;;;;;;;;;;;21.00;90.30;;;;;;4982091;28;20026;-80
2022/11/03 18:37:58;;;;;;;;;;;21.00;90.30;;;;;;4983737;28;19926;-79
2022/11/03 18:40:25;;;;;;;;;;;21.00;90.40;;;;;;4984553;28;19926;-80
2022/11/03 18:42:52;;;;;;;;;;;21.00;90.40;;;;;;4983846;28;19962;-81
2022/11/03 18:45:20;;;;;;;;;;;21.00;90.50;;;;;;4984212;28;19926;-82
2022/11/03 18:47:47;;;;;;;;;;;21.00;90.60;;;;;;4982434;28;20279;-81
2022/11/03 18:50:14;;;;;;;;;;;21.00;90.60;;;;;;4981587;28;19926;-82
2022/11/03 18:52:43;;;;;;;;;;;21.00;90.70;;;;;;4980583;28;19934;-82
2022/11/03 18:55:10;;;;;;;;;;;21.10;90.80;;;;;;4980403;28;19981;-82
2022/11/03 18:57:37;;;;;;;;;;;21.00;90.80;;;;;;4979933;28;19926;-82
2022/11/03 19:00:05;;;;;;;;;;;21.00;90.80;;;;;;4979653;28;19941;-81
2022/11/03 19:02:31;;;;;;;;;;;21.00;90.80;;;;;;4979378;28;19961;-81
2022/11/03 19:04:58;;;;;;;;;;;21.00;90.80;;;;;;4979500;28;20305;-81
2022/11/03 19:07:27;;;;;;;;;;;20.90;90.80;;;;;;4979760;28;19933;-80
2022/11/03 19:09:55;;;;;;;;;;;20.90;90.80;;;;;;4980331;28;19926;-81
2022/11/03 19:12:22;;;;;;;;;;;20.90;90.80;;;;;;4979100;28;19926;-80
2022/11/03 19:14:49;;;;;;;;;;;20.90;90.80;;;;;;4979203;28;19933;-80
2022/11/03 19:17:16;;;;;;;;;;;20.90;90.80;;;;;;4979031;28;19926;-84
2022/11/03 19:19:43;;;;;;;;;;;20.90;90.80;;;;;;4981323;28;19926;-82
2022/11/03 19:22:13;;;;;;;;;;;20.90;90.80;;;;;;4982701;28;20294;-81
2022/11/03 19:24:40;;;;;;;;;;;20.90;90.90;;;;;;4982800;28;19926;-82
2022/11/03 19:27:10;;;;;;;;;;;20.90;91.00;;;;;;4982387;28;20416;-82
2022/11/03 19:29:38;;;;;;;;;;;20.90;91.00;;;;;;4981680;28;20293;-81
2022/11/03 19:32:05;;;;;;;;;;;20.90;91.10;;;;;;4981441;28;19926;-81
2022/11/03 19:34:33;;;;;;;;;;;20.90;91.10;;;;;;4981747;28;20405;-82
2022/11/03 19:37:00;;;;;;;;;;;20.80;91.10;;;;;;4981634;28;19933;-81
2022/11/03 19:39:30;;;;;;;;;;;20.90;91.20;;;;;;4981460;28;19926;-81
2022/11/03 19:44:43;;;;;;;;;;;20.90;91.30;;;;;;4981219;28;19929;-81
2022/11/03 19:47:11;;;;;;;;;;;20.90;91.40;;;;;;4980963;28;19973;-82
2022/11/03 19:49:38;;;;;;;;;;;20.80;91.40;;;;;;4981717;28;19950;-82
2022/11/03 19:52:04;;;;;;;;;;;20.80;91.40;;;;;;4981368;28;19932;-81
2022/11/03 19:54:31;;;;;;;;;;;20.80;91.40;;;;;;4980664;28;20433;-83
2022/11/03 19:56:57;;;;;;;;;;;20.80;91.50;;;;;;4979927;28;19926;-83
2022/11/03 19:59:24;;;;;;;;;;;20.80;91.50;;;;;;4980546;28;19926;-83
2022/11/03 20:01:52;;;;;;;;;;;20.80;91.60;;;;;;4981807;28;19926;-84
2022/11/03 20:04:18;;;;;;;;;;;20.80;91.60;;;;;;4980467;28;19926;-80
2022/11/03 20:06:45;;;;;;;;;;;20.80;91.70;;;;;;4980094;28;20405;-81
2022/11/03 20:09:14;;;;;;;;;;;20.80;91.70;;;;;;4980345;28;19933;-81
2022/11/03 20:11:41;;;;;;;;;;;20.70;91.70;;;;;;4979991;28;19977;-79
2022/11/03 20:14:10;;;;;;;;;;;20.70;91.80;;;;;;4979797;28;19926;-81
2022/11/03 20:16:36;;;;;;;;;;;20.70;91.80;;;;;;4979857;28;19930;-81